sensor_id;sensor_type;location;lat;lon;timestamp;P1;durP1;ratioP1;P2;durP2;ratioP2
67090;SDS011;54007;55.818;49.058;2023-05-29T09:14:52;14.40;;;3.15;;
67090;SDS011;54007;55.818;49.058;2023-05-29T09:17:24;6.78;;;1.62;;
67090;SDS011;54007;55.818;49.058;2023-05-29T09:19:50;9.13;;;2.77;;
67090;SDS011;54007;55.818;49.058;2023-05-29T09:22:16;5.17;;;1.77;;
67090;SDS011;54007;55.818;49.058;2023-05-29T09:24:43;4.97;;;1.45;;
67090;SDS011;54007;55.818;49.058;2023-05-29T09:27:08;6.05;;;1.90;;
67090;SDS011;54007;55.818;49.058;2023-05-29T09:29:37;6.13;;;1.70;;
67090;SDS011;54007;55.818;49.058;2023-05-29T09:31:59;10.95;;;2.10;;
67090;SDS011;54007;55.818;49.058;2023-05-29T09:34:25;7.97;;;2.33;;
67090;SDS011;54007;55.818;49.058;2023-05-29T09:36:51;7.20;;;2.00;;
67090;SDS011;54007;55.818;49.058;2023-05-29T09:39:17;5.80;;;1.70;;
67090;SDS011;54007;55.818;49.058;2023-05-29T09:41:43;6.57;;;2.00;;
67090;SDS011;54007;55.818;49.058;2023-05-29T09:44:11;9.38;;;3.12;;
67090;SDS011;54007;55.818;49.058;2023-05-29T09:46:38;8.77;;;2.50;;
67090;SDS011;54007;55.818;49.058;2023-05-29T09:49:03;10.18;;;2.05;;
67090;SDS011;54007;55.818;49.058;2023-05-29T09:51:29;7.05;;;1.80;;
67090;SDS011;54007;55.818;49.058;2023-05-29T09:53:55;5.17;;;1.80;;
67090;SDS011;54007;55.818;49.058;2023-05-29T09:56:22;7.47;;;1.92;;
67090;SDS011;54007;55.818;49.058;2023-05-29T09:58:46;9.78;;;2.17;;
67090;SDS011;54007;55.818;49.058;2023-05-29T10:01:12;4.47;;;2.07;;
67090;SDS011;54007;55.818;49.058;2023-05-29T10:03:38;5.95;;;2.20;;
67090;SDS011;54007;55.818;49.058;2023-05-29T10:06:04;9.37;;;3.27;;
67090;SDS011;54007;55.818;49.058;2023-05-29T10:08:30;5.58;;;2.20;;
67090;SDS011;54007;55.818;49.058;2023-05-29T10:11:00;6.97;;;2.00;;
67090;SDS011;54007;55.818;49.058;2023-05-29T10:13:21;7.03;;;1.90;;
67090;SDS011;54007;55.818;49.058;2023-05-29T10:15:51;6.47;;;2.70;;
67090;SDS011;54007;55.818;49.058;2023-05-29T10:18:16;7.33;;;2.30;;
67090;SDS011;54007;55.818;49.058;2023-05-29T10:20:39;7.20;;;2.52;;
67090;SDS011;54007;55.818;49.058;2023-05-29T10:23:05;7.53;;;2.30;;
67090;SDS011;54007;55.818;49.058;2023-05-29T10:25:34;9.57;;;1.73;;
67090;SDS011;54007;55.818;49.058;2023-05-29T10:27:56;11.57;;;1.98;;
67090;SDS011;54007;55.818;49.058;2023-05-29T10:30:39;7.70;;;2.10;;
67090;SDS011;54007;55.818;49.058;2023-05-29T10:38:28;7.87;;;1.90;;
67090;SDS011;54007;55.818;49.058;2023-05-29T10:40:53;12.15;;;6.22;;
67090;SDS011;54007;55.818;49.058;2023-05-29T10:43:40;6.50;;;2.10;;
67090;SDS011;54007;55.818;49.058;2023-05-29T10:50:37;7.08;;;2.08;;
67090;SDS011;54007;55.818;49.058;2023-05-29T10:53:03;5.55;;;1.80;;
67090;SDS011;54007;55.818;49.058;2023-05-29T10:55:33;4.40;;;1.80;;
67090;SDS011;54007;55.818;49.058;2023-05-29T10:57:55;4.37;;;1.70;;
67090;SDS011;54007;55.818;49.058;2023-05-29T11:00:21;9.78;;;2.45;;
67090;SDS011;54007;55.818;49.058;2023-05-29T11:02:47;7.78;;;2.20;;
67090;SDS011;54007;55.818;49.058;2023-05-29T11:05:19;7.73;;;2.60;;
67090;SDS011;54007;55.818;49.058;2023-05-29T11:07:52;5.70;;;2.50;;
67090;SDS011;54007;55.818;49.058;2023-05-29T11:11:02;4.53;;;2.30;;
67090;SDS011;54007;55.818;49.058;2023-05-29T11:12:58;7.42;;;2.20;;
67090;SDS011;54007;55.818;49.058;2023-05-29T11:15:24;9.00;;;2.60;;
67090;SDS011;54007;55.818;49.058;2023-05-29T11:17:49;6.67;;;2.55;;
67090;SDS011;54007;55.818;49.058;2023-05-29T11:20:58;12.07;;;2.45;;
67090;SDS011;54007;55.818;49.058;2023-05-29T11:23:01;9.60;;;3.30;;
67090;SDS011;54007;55.818;49.058;2023-05-29T11:25:26;7.57;;;2.30;;
67090;SDS011;54007;55.818;49.058;2023-05-29T11:27:51;10.38;;;2.77;;
67090;SDS011;54007;55.818;49.058;2023-05-29T11:30:18;6.90;;;2.83;;
67090;SDS011;54007;55.818;49.058;2023-05-29T11:32:44;5.53;;;2.30;;
67090;SDS011;54007;55.818;49.058;2023-05-29T11:35:10;5.55;;;2.37;;
67090;SDS011;54007;55.818;49.058;2023-05-29T11:37:35;10.43;;;2.55;;
67090;SDS011;54007;55.818;49.058;2023-05-29T11:40:04;6.93;;;2.30;;
67090;SDS011;54007;55.818;49.058;2023-05-29T11:42:27;4.72;;;2.20;;
67090;SDS011;54007;55.818;49.058;2023-05-29T11:44:53;7.97;;;2.15;;
67090;SDS011;54007;55.818;49.058;2023-05-29T11:47:21;7.77;;;2.53;;
67090;SDS011;54007;55.818;49.058;2023-05-29T11:49:49;6.67;;;2.72;;
67090;SDS011;54007;55.818;49.058;2023-05-29T11:52:20;6.50;;;2.10;;
67090;SDS011;54007;55.818;49.058;2023-05-29T11:54:46;4.65;;;2.17;;
67090;SDS011;54007;55.818;49.058;2023-05-29T11:57:19;6.90;;;2.30;;
67090;SDS011;54007;55.818;49.058;2023-05-29T11:59:44;6.00;;;2.40;;
67090;SDS011;54007;55.818;49.058;2023-05-29T12:02:10;5.03;;;2.37;;
67090;SDS011;54007;55.818;49.058;2023-05-29T12:04:36;9.23;;;2.70;;
67090;SDS011;54007;55.818;49.058;2023-05-29T12:07:11;9.20;;;2.80;;
67090;SDS011;54007;55.818;49.058;2023-05-29T12:09:28;9.83;;;2.80;;
67090;SDS011;54007;55.818;49.058;2023-05-29T12:11:54;6.22;;;2.50;;
67090;SDS011;54007;55.818;49.058;2023-05-29T12:14:20;7.57;;;2.20;;
67090;SDS011;54007;55.818;49.058;2023-05-29T12:16:46;18.48;;;5.62;;
67090;SDS011;54007;55.818;49.058;2023-05-29T12:19:11;26.57;;;8.65;;
67090;SDS011;54007;55.818;49.058;2023-05-29T12:21:41;29.60;;;4.60;;
67090;SDS011;54007;55.818;49.058;2023-05-29T12:24:04;7.47;;;2.65;;
67090;SDS011;54007;55.818;49.058;2023-05-29T12:26:29;7.07;;;2.37;;
67090;SDS011;54007;55.818;49.058;2023-05-29T12:28:55;5.42;;;2.40;;
67090;SDS011;54007;55.818;49.058;2023-05-29T12:31:27;20.00;;;6.25;;
67090;SDS011;54007;55.818;49.058;2023-05-29T12:33:53;9.13;;;2.90;;
67090;SDS011;54007;55.818;49.058;2023-05-29T12:36:19;10.30;;;2.77;;
67090;SDS011;54007;55.818;49.058;2023-05-29T12:38:49;9.05;;;2.90;;
67090;SDS011;54007;55.818;49.058;2023-05-29T12:43:48;12.30;;;4.40;;
67090;SDS011;54007;55.818;49.058;2023-05-29T12:46:14;11.68;;;3.10;;
67090;SDS011;54007;55.818;49.058;2023-05-29T12:48:40;7.95;;;2.65;;
67090;SDS011;54007;55.818;49.058;2023-05-29T12:51:06;9.40;;;2.80;;
67090;SDS011;54007;55.818;49.058;2023-05-29T12:53:32;13.58;;;2.95;;
67090;SDS011;54007;55.818;49.058;2023-05-29T12:55:57;7.03;;;2.57;;
67090;SDS011;54007;55.818;49.058;2023-05-29T12:58:23;11.25;;;3.05;;
67090;SDS011;54007;55.818;49.058;2023-05-29T13:00:52;6.22;;;2.50;;
67090;SDS011;54007;55.818;49.058;2023-05-29T13:03:15;9.40;;;2.40;;
67090;SDS011;54007;55.818;49.058;2023-05-29T13:05:41;7.97;;;2.80;;
67090;SDS011;54007;55.818;49.058;2023-05-29T13:08:07;7.15;;;2.37;;
67090;SDS011;54007;55.818;49.058;2023-05-29T13:10:39;6.03;;;2.70;;
67090;SDS011;54007;55.818;49.058;2023-05-29T13:13:05;8.43;;;2.60;;
67090;SDS011;54007;55.818;49.058;2023-05-29T13:15:31;11.00;;;2.60;;
67090;SDS011;54007;55.818;49.058;2023-05-29T13:17:57;9.30;;;2.93;;
67090;SDS011;54007;55.818;49.058;2023-05-29T13:20:22;8.88;;;3.17;;
67090;SDS011;54007;55.818;49.058;2023-05-29T13:22:48;15.07;;;3.40;;
67090;SDS011;54007;55.818;49.058;2023-05-29T13:25:15;6.40;;;3.60;;
67090;SDS011;54007;55.818;49.058;2023-05-29T13:27:42;7.12;;;2.42;;
67090;SDS011;54007;55.818;49.058;2023-05-29T13:30:09;9.93;;;3.50;;
67090;SDS011;54007;55.818;49.058;2023-05-29T13:32:32;13.18;;;3.17;;
67090;SDS011;54007;55.818;49.058;2023-05-29T13:34:58;7.83;;;3.02;;
67090;SDS011;54007;55.818;49.058;2023-05-29T13:37:24;7.97;;;3.83;;
67090;SDS011;54007;55.818;49.058;2023-05-29T13:39:49;6.92;;;3.80;;
67090;SDS011;54007;55.818;49.058;2023-05-29T13:42:18;7.35;;;2.55;;
67090;SDS011;54007;55.818;49.058;2023-05-29T13:44:41;6.17;;;2.10;;
67090;SDS011;54007;55.818;49.058;2023-05-29T13:47:07;7.33;;;2.40;;
67090;SDS011;54007;55.818;49.058;2023-05-29T13:49:33;7.50;;;2.60;;
67090;SDS011;54007;55.818;49.058;2023-05-29T13:51:59;12.07;;;2.30;;
67090;SDS011;54007;55.818;49.058;2023-05-29T13:54:25;7.70;;;2.15;;
67090;SDS011;54007;55.818;49.058;2023-05-29T13:56:51;5.53;;;2.47;;
67090;SDS011;54007;55.818;49.058;2023-05-29T13:59:17;6.05;;;2.50;;
67090;SDS011;54007;55.818;49.058;2023-05-29T14:01:43;6.60;;;2.30;;
67090;SDS011;54007;55.818;49.058;2023-05-29T14:04:09;18.42;;;6.33;;
67090;SDS011;54007;55.818;49.058;2023-05-29T14:06:34;6.83;;;2.70;;
67090;SDS011;54007;55.818;49.058;2023-05-29T14:09:00;7.72;;;2.85;;
67090;SDS011;54007;55.818;49.058;2023-05-29T14:11:26;13.65;;;2.70;;
67090;SDS011;54007;55.818;49.058;2023-05-29T14:13:52;8.90;;;2.40;;
67090;SDS011;54007;55.818;49.058;2023-05-29T14:16:18;10.65;;;3.17;;
67090;SDS011;54007;55.818;49.058;2023-05-29T14:18:44;8.93;;;2.52;;
67090;SDS011;54007;55.818;49.058;2023-05-29T14:21:10;7.43;;;3.20;;
67090;SDS011;54007;55.818;49.058;2023-05-29T14:23:36;9.85;;;2.95;;
67090;SDS011;54007;55.818;49.058;2023-05-29T14:26:06;7.93;;;2.47;;
67090;SDS011;54007;55.818;49.058;2023-05-29T14:28:38;7.75;;;2.58;;
67090;SDS011;54007;55.818;49.058;2023-05-29T14:31:04;8.50;;;2.95;;
67090;SDS011;54007;55.818;49.058;2023-05-29T14:33:30;9.73;;;2.72;;
67090;SDS011;54007;55.818;49.058;2023-05-29T14:35:59;7.20;;;2.70;;
67090;SDS011;54007;55.818;49.058;2023-05-29T14:38:25;6.65;;;2.80;;
67090;SDS011;54007;55.818;49.058;2023-05-29T14:40:51;6.45;;;2.70;;
67090;SDS011;54007;55.818;49.058;2023-05-29T14:43:16;8.60;;;2.77;;
67090;SDS011;54007;55.818;49.058;2023-05-29T14:45:42;14.65;;;2.98;;
67090;SDS011;54007;55.818;49.058;2023-05-29T14:48:08;6.53;;;3.08;;
67090;SDS011;54007;55.818;49.058;2023-05-29T14:50:34;9.90;;;3.20;;
67090;SDS011;54007;55.818;49.058;2023-05-29T14:53:00;7.72;;;3.05;;
67090;SDS011;54007;55.818;49.058;2023-05-29T14:55:26;7.62;;;3.10;;
67090;SDS011;54007;55.818;49.058;2023-05-29T14:57:52;8.40;;;3.30;;
67090;SDS011;54007;55.818;49.058;2023-05-29T15:00:18;6.70;;;3.00;;
67090;SDS011;54007;55.818;49.058;2023-05-29T15:02:44;6.42;;;3.10;;
67090;SDS011;54007;55.818;49.058;2023-05-29T15:05:09;7.40;;;3.08;;
67090;SDS011;54007;55.818;49.058;2023-05-29T15:07:35;7.07;;;3.07;;
67090;SDS011;54007;55.818;49.058;2023-05-29T15:10:03;7.28;;;3.58;;
67090;SDS011;54007;55.818;49.058;2023-05-29T15:12:28;10.60;;;4.05;;
67090;SDS011;54007;55.818;49.058;2023-05-29T15:14:54;8.50;;;3.27;;
67090;SDS011;54007;55.818;49.058;2023-05-29T15:17:20;13.00;;;3.30;;
67090;SDS011;54007;55.818;49.058;2023-05-29T15:19:46;10.07;;;3.50;;
67090;SDS011;54007;55.818;49.058;2023-05-29T15:22:11;6.83;;;3.40;;
67090;SDS011;54007;55.818;49.058;2023-05-29T15:24:37;10.70;;;3.55;;
67090;SDS011;54007;55.818;49.058;2023-05-29T15:27:03;13.37;;;5.57;;
67090;SDS011;54007;55.818;49.058;2023-05-29T15:29:32;7.03;;;3.12;;
67090;SDS011;54007;55.818;49.058;2023-05-29T15:31:55;9.25;;;3.30;;
67090;SDS011;54007;55.818;49.058;2023-05-29T15:34:21;6.90;;;3.20;;
67090;SDS011;54007;55.818;49.058;2023-05-29T15:36:47;10.55;;;3.80;;
67090;SDS011;54007;55.818;49.058;2023-05-29T15:39:12;7.43;;;3.10;;
67090;SDS011;54007;55.818;49.058;2023-05-29T15:41:38;8.68;;;2.95;;
67090;SDS011;54007;55.818;49.058;2023-05-29T15:44:08;6.83;;;3.17;;
67090;SDS011;54007;55.818;49.058;2023-05-29T15:46:40;8.27;;;3.40;;
67090;SDS011;54007;55.818;49.058;2023-05-29T15:49:06;12.13;;;4.75;;
67090;SDS011;54007;55.818;49.058;2023-05-29T15:51:32;16.07;;;3.65;;
67090;SDS011;54007;55.818;49.058;2023-05-29T15:53:58;12.60;;;3.40;;
67090;SDS011;54007;55.818;49.058;2023-05-29T15:56:24;7.95;;;3.33;;
67090;SDS011;54007;55.818;49.058;2023-05-29T15:58:50;8.33;;;3.40;;
67090;SDS011;54007;55.818;49.058;2023-05-29T16:01:15;7.05;;;3.12;;
67090;SDS011;54007;55.818;49.058;2023-05-29T16:03:41;6.40;;;3.15;;
67090;SDS011;54007;55.818;49.058;2023-05-29T16:06:07;8.27;;;3.30;;
67090;SDS011;54007;55.818;49.058;2023-05-29T16:08:33;8.23;;;3.80;;
67090;SDS011;54007;55.818;49.058;2023-05-29T16:10:59;10.37;;;5.47;;
67090;SDS011;54007;55.818;49.058;2023-05-29T16:13:25;10.20;;;3.70;;
67090;SDS011;54007;55.818;49.058;2023-05-29T16:15:50;8.88;;;3.87;;
67090;SDS011;54007;55.818;49.058;2023-05-29T16:18:16;8.70;;;3.57;;
67090;SDS011;54007;55.818;49.058;2023-05-29T16:20:42;11.90;;;4.00;;
67090;SDS011;54007;55.818;49.058;2023-05-29T16:23:08;11.15;;;4.08;;
67090;SDS011;54007;55.818;49.058;2023-05-29T16:25:34;8.00;;;3.63;;
67090;SDS011;54007;55.818;49.058;2023-05-29T16:28:00;7.10;;;3.60;;
67090;SDS011;54007;55.818;49.058;2023-05-29T16:30:25;8.83;;;3.80;;
67090;SDS011;54007;55.818;49.058;2023-05-29T16:32:51;12.23;;;3.87;;
67090;SDS011;54007;55.818;49.058;2023-05-29T16:35:17;9.20;;;3.95;;
67090;SDS011;54007;55.818;49.058;2023-05-29T16:37:43;10.83;;;3.50;;
67090;SDS011;54007;55.818;49.058;2023-05-29T16:40:09;11.48;;;4.10;;
67090;SDS011;54007;55.818;49.058;2023-05-29T16:42:37;10.13;;;3.83;;
67090;SDS011;54007;55.818;49.058;2023-05-29T16:45:01;11.63;;;4.10;;
67090;SDS011;54007;55.818;49.058;2023-05-29T16:47:27;8.18;;;3.67;;
67090;SDS011;54007;55.818;49.058;2023-05-29T16:49:52;11.43;;;4.30;;
67090;SDS011;54007;55.818;49.058;2023-05-29T16:52:18;8.55;;;4.50;;
67090;SDS011;54007;55.818;49.058;2023-05-29T16:54:47;8.80;;;4.47;;
67090;SDS011;54007;55.818;49.058;2023-05-29T16:57:13;9.58;;;4.40;;
67090;SDS011;54007;55.818;49.058;2023-05-29T16:59:38;16.10;;;4.77;;
67090;SDS011;54007;55.818;49.058;2023-05-29T17:02:08;25.65;;;16.65;;
67090;SDS011;54007;55.818;49.058;2023-05-29T17:04:40;11.88;;;5.47;;
67090;SDS011;54007;55.818;49.058;2023-05-29T17:07:06;9.73;;;4.83;;
67090;SDS011;54007;55.818;49.058;2023-05-29T17:09:32;10.88;;;4.62;;
67090;SDS011;54007;55.818;49.058;2023-05-29T17:11:58;13.55;;;5.28;;
67090;SDS011;54007;55.818;49.058;2023-05-29T17:14:24;11.73;;;5.53;;
67090;SDS011;54007;55.818;49.058;2023-05-29T17:16:50;11.45;;;5.12;;
67090;SDS011;54007;55.818;49.058;2023-05-29T17:19:19;12.82;;;4.70;;
67090;SDS011;54007;55.818;49.058;2023-05-29T17:21:42;11.60;;;5.13;;
67090;SDS011;54007;55.818;49.058;2023-05-29T17:24:08;18.02;;;5.62;;
67090;SDS011;54007;55.818;49.058;2023-05-29T17:26:34;17.55;;;5.80;;
67090;SDS011;54007;55.818;49.058;2023-05-29T17:29:00;13.97;;;4.70;;
67090;SDS011;54007;55.818;49.058;2023-05-29T17:31:26;17.93;;;6.80;;
67090;SDS011;54007;55.818;49.058;2023-05-29T17:33:52;17.32;;;6.00;;
67090;SDS011;54007;55.818;49.058;2023-05-29T17:36:18;14.00;;;5.87;;
67090;SDS011;54007;55.818;49.058;2023-05-29T17:38:43;14.90;;;5.37;;
67090;SDS011;54007;55.818;49.058;2023-05-29T17:41:09;22.17;;;5.55;;
67090;SDS011;54007;55.818;49.058;2023-05-29T17:43:35;19.23;;;6.10;;
67090;SDS011;54007;55.818;49.058;2023-05-29T17:46:01;21.68;;;6.42;;
67090;SDS011;54007;55.818;49.058;2023-05-29T17:48:27;16.73;;;7.07;;
67090;SDS011;54007;55.818;49.058;2023-05-29T17:50:53;20.85;;;6.95;;
67090;SDS011;54007;55.818;49.058;2023-05-29T17:53:19;20.87;;;6.30;;
67090;SDS011;54007;55.818;49.058;2023-05-29T17:55:45;19.55;;;6.30;;
67090;SDS011;54007;55.818;49.058;2023-05-29T17:58:10;26.42;;;7.50;;
67090;SDS011;54007;55.818;49.058;2023-05-29T18:00:36;24.57;;;6.90;;
67090;SDS011;54007;55.818;49.058;2023-05-29T18:03:05;20.37;;;6.17;;
